sensor_id;sensor_type;location;lat;lon;timestamp;P1;durP1;ratioP1;P2;durP2;ratioP2
37349;SDS011;23231;52.358;4.926;2022-08-20T00:02:11;10.45;;;4.90;;
37349;SDS011;23231;52.358;4.926;2022-08-20T00:07:13;9.40;;;4.72;;
37349;SDS011;23231;52.358;4.926;2022-08-20T00:12:14;11.15;;;4.68;;
37349;SDS011;23231;52.358;4.926;2022-08-20T00:17:16;11.05;;;5.10;;
37349;SDS011;23231;52.358;4.926;2022-08-20T00:22:16;8.68;;;4.45;;
37349;SDS011;23231;52.358;4.926;2022-08-20T00:27:17;8.82;;;3.85;;
37349;SDS011;23231;52.358;4.926;2022-08-20T00:32:17;10.82;;;4.30;;
37349;SDS011;23231;52.358;4.926;2022-08-20T00:37:17;13.63;;;4.60;;
37349;SDS011;23231;52.358;4.926;2022-08-20T00:42:18;7.95;;;3.67;;
37349;SDS011;23231;52.358;4.926;2022-08-20T00:47:18;7.43;;;4.03;;
37349;SDS011;23231;52.358;4.926;2022-08-20T00:52:19;8.90;;;3.80;;
37349;SDS011;23231;52.358;4.926;2022-08-20T00:57:22;11.68;;;3.78;;
37349;SDS011;23231;52.358;4.926;2022-08-20T01:02:25;9.45;;;3.50;;
37349;SDS011;23231;52.358;4.926;2022-08-20T01:07:28;9.05;;;3.33;;
37349;SDS011;23231;52.358;4.926;2022-08-20T01:17:34;8.15;;;3.20;;
37349;SDS011;23231;52.358;4.926;2022-08-20T01:22:44;7.90;;;2.85;;
37349;SDS011;23231;52.358;4.926;2022-08-20T01:28:07;7.25;;;3.20;;
37349;SDS011;23231;52.358;4.926;2022-08-20T01:33:09;9.68;;;3.30;;
37349;SDS011;23231;52.358;4.926;2022-08-20T01:38:10;11.15;;;3.47;;
37349;SDS011;23231;52.358;4.926;2022-08-20T01:43:11;9.00;;;3.67;;
37349;SDS011;23231;52.358;4.926;2022-08-20T01:48:12;11.70;;;3.88;;
37349;SDS011;23231;52.358;4.926;2022-08-20T01:53:32;9.80;;;2.92;;
37349;SDS011;23231;52.358;4.926;2022-08-20T01:58:38;8.23;;;2.72;;
37349;SDS011;23231;52.358;4.926;2022-08-20T02:03:40;7.72;;;2.60;;
37349;SDS011;23231;52.358;4.926;2022-08-20T02:08:42;8.27;;;2.58;;
37349;SDS011;23231;52.358;4.926;2022-08-20T02:13:42;10.25;;;2.90;;
37349;SDS011;23231;52.358;4.926;2022-08-20T02:18:42;12.23;;;3.10;;
37349;SDS011;23231;52.358;4.926;2022-08-20T02:23:43;9.77;;;2.63;;
37349;SDS011;23231;52.358;4.926;2022-08-20T02:28:46;10.00;;;3.38;;
37349;SDS011;23231;52.358;4.926;2022-08-20T02:33:48;7.95;;;3.20;;
37349;SDS011;23231;52.358;4.926;2022-08-20T02:38:49;8.77;;;2.45;;
37349;SDS011;23231;52.358;4.926;2022-08-20T02:43:49;6.88;;;2.70;;
37349;SDS011;23231;52.358;4.926;2022-08-20T02:48:50;10.27;;;2.83;;
37349;SDS011;23231;52.358;4.926;2022-08-20T02:53:50;8.25;;;2.70;;
37349;SDS011;23231;52.358;4.926;2022-08-20T02:58:51;8.25;;;2.30;;
37349;SDS011;23231;52.358;4.926;2022-08-20T03:03:51;8.07;;;2.90;;
37349;SDS011;23231;52.358;4.926;2022-08-20T03:08:52;11.48;;;3.00;;
37349;SDS011;23231;52.358;4.926;2022-08-20T03:13:53;8.73;;;2.80;;
37349;SDS011;23231;52.358;4.926;2022-08-20T03:18:53;9.23;;;2.92;;
37349;SDS011;23231;52.358;4.926;2022-08-20T03:23:56;7.22;;;2.72;;
37349;SDS011;23231;52.358;4.926;2022-08-20T03:28:56;8.60;;;2.63;;
37349;SDS011;23231;52.358;4.926;2022-08-20T03:33:57;11.90;;;2.78;;
37349;SDS011;23231;52.358;4.926;2022-08-20T03:38:59;8.68;;;2.70;;
37349;SDS011;23231;52.358;4.926;2022-08-20T03:44:01;10.65;;;3.50;;
37349;SDS011;23231;52.358;4.926;2022-08-20T03:49:01;10.70;;;3.00;;
37349;SDS011;23231;52.358;4.926;2022-08-20T03:54:02;11.30;;;3.47;;
37349;SDS011;23231;52.358;4.926;2022-08-20T03:59:02;10.30;;;2.95;;
37349;SDS011;23231;52.358;4.926;2022-08-20T04:04:03;8.15;;;3.00;;
37349;SDS011;23231;52.358;4.926;2022-08-20T04:09:03;10.20;;;3.00;;
37349;SDS011;23231;52.358;4.926;2022-08-20T04:14:04;9.82;;;2.90;;
37349;SDS011;23231;52.358;4.926;2022-08-20T04:19:04;11.20;;;3.20;;
37349;SDS011;23231;52.358;4.926;2022-08-20T04:24:06;8.98;;;3.17;;
37349;SDS011;23231;52.358;4.926;2022-08-20T04:29:06;10.25;;;2.75;;
37349;SDS011;23231;52.358;4.926;2022-08-20T04:34:07;10.05;;;3.38;;
37349;SDS011;23231;52.358;4.926;2022-08-20T04:39:07;10.38;;;3.20;;
37349;SDS011;23231;52.358;4.926;2022-08-20T04:44:08;12.07;;;2.92;;
37349;SDS011;23231;52.358;4.926;2022-08-20T04:49:10;8.35;;;2.90;;
37349;SDS011;23231;52.358;4.926;2022-08-20T04:54:11;10.35;;;3.15;;
37349;SDS011;23231;52.358;4.926;2022-08-20T04:59:13;8.15;;;2.47;;
37349;SDS011;23231;52.358;4.926;2022-08-20T05:04:14;7.75;;;2.90;;
37349;SDS011;23231;52.358;4.926;2022-08-20T05:09:14;9.15;;;2.75;;
37349;SDS011;23231;52.358;4.926;2022-08-20T05:14:14;11.45;;;2.95;;
37349;SDS011;23231;52.358;4.926;2022-08-20T05:19:15;8.52;;;2.55;;
37349;SDS011;23231;52.358;4.926;2022-08-20T05:24:16;8.00;;;2.15;;
37349;SDS011;23231;52.358;4.926;2022-08-20T05:29:17;9.15;;;2.80;;
37349;SDS011;23231;52.358;4.926;2022-08-20T05:34:17;10.55;;;2.40;;
37349;SDS011;23231;52.358;4.926;2022-08-20T05:39:18;10.05;;;2.67;;
37349;SDS011;23231;52.358;4.926;2022-08-20T05:44:20;13.30;;;3.33;;
37349;SDS011;23231;52.358;4.926;2022-08-20T05:49:21;10.00;;;2.60;;
37349;SDS011;23231;52.358;4.926;2022-08-20T05:54:22;7.15;;;2.42;;
37349;SDS011;23231;52.358;4.926;2022-08-20T05:59:23;9.32;;;2.42;;
37349;SDS011;23231;52.358;4.926;2022-08-20T06:04:24;8.38;;;2.20;;
37349;SDS011;23231;52.358;4.926;2022-08-20T06:09:25;10.27;;;3.05;;
37349;SDS011;23231;52.358;4.926;2022-08-20T06:14:26;8.45;;;2.22;;
37349;SDS011;23231;52.358;4.926;2022-08-20T06:19:27;10.27;;;2.63;;
37349;SDS011;23231;52.358;4.926;2022-08-20T06:24:27;8.40;;;2.35;;
37349;SDS011;23231;52.358;4.926;2022-08-20T06:29:28;9.23;;;2.50;;
37349;SDS011;23231;52.358;4.926;2022-08-20T06:34:29;9.18;;;2.40;;
37349;SDS011;23231;52.358;4.926;2022-08-20T06:39:29;12.35;;;2.50;;
37349;SDS011;23231;52.358;4.926;2022-08-20T06:44:30;9.02;;;2.55;;
37349;SDS011;23231;52.358;4.926;2022-08-20T06:49:33;7.32;;;2.00;;
37349;SDS011;23231;52.358;4.926;2022-08-20T06:54:35;7.40;;;2.37;;
37349;SDS011;23231;52.358;4.926;2022-08-20T06:59:35;10.35;;;2.20;;
37349;SDS011;23231;52.358;4.926;2022-08-20T07:04:36;8.80;;;2.50;;
37349;SDS011;23231;52.358;4.926;2022-08-20T07:09:36;10.70;;;2.40;;
37349;SDS011;23231;52.358;4.926;2022-08-20T07:14:36;13.65;;;2.53;;
37349;SDS011;23231;52.358;4.926;2022-08-20T07:19:37;6.60;;;1.83;;
37349;SDS011;23231;52.358;4.926;2022-08-20T07:24:38;7.88;;;2.30;;
37349;SDS011;23231;52.358;4.926;2022-08-20T07:29:38;8.70;;;2.40;;
37349;SDS011;23231;52.358;4.926;2022-08-20T07:34:57;13.45;;;2.70;;
37349;SDS011;23231;52.358;4.926;2022-08-20T07:39:57;9.65;;;2.00;;
37349;SDS011;23231;52.358;4.926;2022-08-20T07:44:58;9.48;;;1.90;;
37349;SDS011;23231;52.358;4.926;2022-08-20T07:49:58;5.55;;;1.40;;
37349;SDS011;23231;52.358;4.926;2022-08-20T07:54:58;8.73;;;1.88;;
37349;SDS011;23231;52.358;4.926;2022-08-20T07:59:59;8.15;;;2.10;;
37349;SDS011;23231;52.358;4.926;2022-08-20T08:04:59;7.78;;;1.70;;
37349;SDS011;23231;52.358;4.926;2022-08-20T08:10:00;9.02;;;2.45;;
37349;SDS011;23231;52.358;4.926;2022-08-20T08:15:03;8.52;;;2.30;;
37349;SDS011;23231;52.358;4.926;2022-08-20T08:20:05;8.65;;;2.58;;
37349;SDS011;23231;52.358;4.926;2022-08-20T08:25:06;6.80;;;2.33;;
37349;SDS011;23231;52.358;4.926;2022-08-20T08:30:08;9.32;;;2.13;;
37349;SDS011;23231;52.358;4.926;2022-08-20T08:35:09;6.30;;;2.47;;
37349;SDS011;23231;52.358;4.926;2022-08-20T08:40:09;6.05;;;2.10;;
37349;SDS011;23231;52.358;4.926;2022-08-20T08:45:11;6.85;;;2.40;;
37349;SDS011;23231;52.358;4.926;2022-08-20T08:50:17;9.57;;;2.58;;
37349;SDS011;23231;52.358;4.926;2022-08-20T08:55:21;9.55;;;2.10;;
37349;SDS011;23231;52.358;4.926;2022-08-20T09:00:22;10.43;;;2.25;;
37349;SDS011;23231;52.358;4.926;2022-08-20T09:05:23;8.95;;;2.00;;
37349;SDS011;23231;52.358;4.926;2022-08-20T09:10:26;7.90;;;1.88;;
37349;SDS011;23231;52.358;4.926;2022-08-20T09:15:27;7.82;;;2.30;;
37349;SDS011;23231;52.358;4.926;2022-08-20T09:20:27;8.02;;;2.20;;
37349;SDS011;23231;52.358;4.926;2022-08-20T09:25:28;9.35;;;2.35;;
37349;SDS011;23231;52.358;4.926;2022-08-20T09:30:28;8.15;;;1.75;;
37349;SDS011;23231;52.358;4.926;2022-08-20T09:35:29;9.00;;;1.85;;
37349;SDS011;23231;52.358;4.926;2022-08-20T09:40:29;9.05;;;2.42;;
37349;SDS011;23231;52.358;4.926;2022-08-20T09:45:30;9.68;;;2.60;;
37349;SDS011;23231;52.358;4.926;2022-08-20T09:50:31;7.50;;;2.35;;
37349;SDS011;23231;52.358;4.926;2022-08-20T09:55:40;10.13;;;2.90;;
37349;SDS011;23231;52.358;4.926;2022-08-20T10:00:44;8.65;;;2.80;;
37349;SDS011;23231;52.358;4.926;2022-08-20T10:05:45;7.75;;;1.92;;
37349;SDS011;23231;52.358;4.926;2022-08-20T10:10:45;7.25;;;2.20;;
37349;SDS011;23231;52.358;4.926;2022-08-20T10:15:46;7.57;;;1.77;;
37349;SDS011;23231;52.358;4.926;2022-08-20T10:20:46;6.93;;;1.98;;
37349;SDS011;23231;52.358;4.926;2022-08-20T10:25:47;7.38;;;1.83;;
37349;SDS011;23231;52.358;4.926;2022-08-20T10:30:47;6.70;;;1.70;;
37349;SDS011;23231;52.358;4.926;2022-08-20T10:35:48;8.45;;;2.60;;
37349;SDS011;23231;52.358;4.926;2022-08-20T10:40:48;7.95;;;2.28;;
37349;SDS011;23231;52.358;4.926;2022-08-20T10:45:49;6.43;;;1.95;;
37349;SDS011;23231;52.358;4.926;2022-08-20T10:50:50;9.73;;;3.00;;
37349;SDS011;23231;52.358;4.926;2022-08-20T10:55:52;9.80;;;2.35;;
37349;SDS011;23231;52.358;4.926;2022-08-20T11:00:53;8.40;;;2.15;;
37349;SDS011;23231;52.358;4.926;2022-08-20T11:05:53;8.30;;;2.20;;
37349;SDS011;23231;52.358;4.926;2022-08-20T11:10:54;7.88;;;2.30;;
37349;SDS011;23231;52.358;4.926;2022-08-20T11:15:54;7.90;;;2.25;;
37349;SDS011;23231;52.358;4.926;2022-08-20T11:20:54;7.15;;;2.10;;
37349;SDS011;23231;52.358;4.926;2022-08-20T11:25:55;7.30;;;1.88;;
37349;SDS011;23231;52.358;4.926;2022-08-20T11:30:56;11.70;;;2.65;;
37349;SDS011;23231;52.358;4.926;2022-08-20T11:35:56;9.63;;;2.05;;
37349;SDS011;23231;52.358;4.926;2022-08-20T11:40:57;8.80;;;1.80;;
37349;SDS011;23231;52.358;4.926;2022-08-20T11:45:57;6.20;;;2.10;;
37349;SDS011;23231;52.358;4.926;2022-08-20T11:50:57;9.05;;;1.92;;
37349;SDS011;23231;52.358;4.926;2022-08-20T11:55:58;8.73;;;2.00;;
37349;SDS011;23231;52.358;4.926;2022-08-20T12:00:59;7.07;;;1.85;;
37349;SDS011;23231;52.358;4.926;2022-08-20T12:05:59;6.63;;;2.08;;
37349;SDS011;23231;52.358;4.926;2022-08-20T12:11:00;7.22;;;2.13;;
37349;SDS011;23231;52.358;4.926;2022-08-20T12:16:02;7.72;;;2.03;;
37349;SDS011;23231;52.358;4.926;2022-08-20T12:21:03;6.43;;;1.50;;
37349;SDS011;23231;52.358;4.926;2022-08-20T12:26:04;7.10;;;1.90;;
37349;SDS011;23231;52.358;4.926;2022-08-20T12:31:05;7.90;;;2.00;;
37349;SDS011;23231;52.358;4.926;2022-08-20T12:36:05;12.40;;;4.32;;
37349;SDS011;23231;52.358;4.926;2022-08-20T12:41:06;12.15;;;3.17;;
37349;SDS011;23231;52.358;4.926;2022-08-20T12:46:06;7.60;;;1.92;;
37349;SDS011;23231;52.358;4.926;2022-08-20T12:51:07;8.68;;;2.17;;
37349;SDS011;23231;52.358;4.926;2022-08-20T12:56:07;7.55;;;2.05;;
37349;SDS011;23231;52.358;4.926;2022-08-20T13:01:08;13.27;;;3.03;;
37349;SDS011;23231;52.358;4.926;2022-08-20T13:06:08;8.27;;;2.22;;
37349;SDS011;23231;52.358;4.926;2022-08-20T13:11:08;11.57;;;2.55;;
37349;SDS011;23231;52.358;4.926;2022-08-20T13:16:09;10.25;;;3.05;;
37349;SDS011;23231;52.358;4.926;2022-08-20T13:21:09;15.95;;;2.53;;
37349;SDS011;23231;52.358;4.926;2022-08-20T13:26:10;8.85;;;2.08;;
37349;SDS011;23231;52.358;4.926;2022-08-20T13:31:10;8.38;;;2.30;;
37349;SDS011;23231;52.358;4.926;2022-08-20T13:36:10;8.88;;;2.50;;
37349;SDS011;23231;52.358;4.926;2022-08-20T13:41:12;8.15;;;2.05;;
37349;SDS011;23231;52.358;4.926;2022-08-20T13:46:12;7.35;;;2.15;;
37349;SDS011;23231;52.358;4.926;2022-08-20T13:51:13;9.43;;;2.08;;
37349;SDS011;23231;52.358;4.926;2022-08-20T13:56:13;8.07;;;2.10;;
37349;SDS011;23231;52.358;4.926;2022-08-20T14:01:14;8.52;;;2.42;;
37349;SDS011;23231;52.358;4.926;2022-08-20T14:06:14;10.70;;;2.83;;
37349;SDS011;23231;52.358;4.926;2022-08-20T14:11:14;11.70;;;3.60;;
37349;SDS011;23231;52.358;4.926;2022-08-20T14:16:15;8.05;;;2.92;;
37349;SDS011;23231;52.358;4.926;2022-08-20T14:21:16;10.95;;;2.80;;
37349;SDS011;23231;52.358;4.926;2022-08-20T14:26:17;9.45;;;2.40;;
37349;SDS011;23231;52.358;4.926;2022-08-20T14:31:17;7.80;;;2.60;;
37349;SDS011;23231;52.358;4.926;2022-08-20T14:36:18;6.43;;;2.10;;
37349;SDS011;23231;52.358;4.926;2022-08-20T14:41:18;6.57;;;2.55;;
37349;SDS011;23231;52.358;4.926;2022-08-20T14:46:18;7.57;;;2.33;;
37349;SDS011;23231;52.358;4.926;2022-08-20T14:51:19;9.63;;;2.65;;
37349;SDS011;23231;52.358;4.926;2022-08-20T14:56:19;8.40;;;2.10;;
37349;SDS011;23231;52.358;4.926;2022-08-20T15:01:20;8.18;;;2.03;;
37349;SDS011;23231;52.358;4.926;2022-08-20T15:06:20;7.38;;;2.20;;
37349;SDS011;23231;52.358;4.926;2022-08-20T15:11:20;5.88;;;1.67;;
37349;SDS011;23231;52.358;4.926;2022-08-20T15:16:21;9.52;;;2.50;;
37349;SDS011;23231;52.358;4.926;2022-08-20T15:21:21;7.57;;;2.13;;
37349;SDS011;23231;52.358;4.926;2022-08-20T15:26:22;7.88;;;2.33;;
37349;SDS011;23231;52.358;4.926;2022-08-20T15:31:22;7.90;;;2.95;;
37349;SDS011;23231;52.358;4.926;2022-08-20T15:36:22;6.97;;;1.85;;
37349;SDS011;23231;52.358;4.926;2022-08-20T15:41:23;8.50;;;2.20;;
37349;SDS011;23231;52.358;4.926;2022-08-20T15:46:29;5.15;;;2.17;;
37349;SDS011;23231;52.358;4.926;2022-08-20T15:51:33;6.57;;;2.15;;
37349;SDS011;23231;52.358;4.926;2022-08-20T16:07:06;8.30;;;2.60;;
37349;SDS011;23231;52.358;4.926;2022-08-20T16:12:10;8.90;;;2.58;;
37349;SDS011;23231;52.358;4.926;2022-08-20T16:17:36;9.35;;;2.53;;
37349;SDS011;23231;52.358;4.926;2022-08-20T16:22:41;7.80;;;1.98;;
37349;SDS011;23231;52.358;4.926;2022-08-20T16:33:05;7.93;;;2.30;;
37349;SDS011;23231;52.358;4.926;2022-08-20T16:38:17;8.13;;;1.90;;
37349;SDS011;23231;52.358;4.926;2022-08-20T16:43:31;6.97;;;2.00;;
37349;SDS011;23231;52.358;4.926;2022-08-20T16:48:36;5.07;;;2.20;;
37349;SDS011;23231;52.358;4.926;2022-08-20T16:53:38;9.60;;;4.10;;
37349;SDS011;23231;52.358;4.926;2022-08-20T16:58:38;6.82;;;2.05;;
37349;SDS011;23231;52.358;4.926;2022-08-20T17:03:48;6.55;;;2.00;;
37349;SDS011;23231;52.358;4.926;2022-08-20T17:08:49;7.18;;;2.05;;
37349;SDS011;23231;52.358;4.926;2022-08-20T17:14:00;6.63;;;2.10;;
37349;SDS011;23231;52.358;4.926;2022-08-20T17:19:27;5.30;;;1.90;;
37349;SDS011;23231;52.358;4.926;2022-08-20T17:24:30;4.85;;;1.80;;
37349;SDS011;23231;52.358;4.926;2022-08-20T17:29:32;6.43;;;2.30;;
37349;SDS011;23231;52.358;4.926;2022-08-20T17:35:08;6.90;;;2.40;;
37349;SDS011;23231;52.358;4.926;2022-08-20T17:40:08;8.10;;;2.33;;
37349;SDS011;23231;52.358;4.926;2022-08-20T17:45:34;4.93;;;2.00;;
37349;SDS011;23231;52.358;4.926;2022-08-20T17:50:40;5.60;;;1.70;;
37349;SDS011;23231;52.358;4.926;2022-08-20T17:55:41;6.93;;;2.20;;
37349;SDS011;23231;52.358;4.926;2022-08-20T18:00:43;6.47;;;2.20;;
37349;SDS011;23231;52.358;4.926;2022-08-20T18:05:44;9.77;;;3.13;;
37349;SDS011;23231;52.358;4.926;2022-08-20T18:10:58;9.32;;;2.60;;
37349;SDS011;23231;52.358;4.926;2022-08-20T18:16:00;9.52;;;2.72;;
37349;SDS011;23231;52.358;4.926;2022-08-20T18:26:16;7.93;;;2.33;;
37349;SDS011;23231;52.358;4.926;2022-08-20T18:31:23;7.32;;;2.17;;
37349;SDS011;23231;52.358;4.926;2022-08-20T18:36:25;6.70;;;2.50;;
37349;SDS011;23231;52.358;4.926;2022-08-20T18:46:52;7.13;;;2.53;;
37349;SDS011;23231;52.358;4.926;2022-08-20T18:51:57;8.00;;;2.40;;
37349;SDS011;23231;52.358;4.926;2022-08-20T18:57:19;6.53;;;2.58;;
37349;SDS011;23231;52.358;4.926;2022-08-20T19:07:26;10.57;;;2.78;;
37349;SDS011;23231;52.358;4.926;2022-08-20T19:12:36;7.50;;;2.42;;
37349;SDS011;23231;52.358;4.926;2022-08-20T19:22:58;8.43;;;3.00;;
37349;SDS011;23231;52.358;4.926;2022-08-20T19:28:02;7.60;;;2.70;;
37349;SDS011;23231;52.358;4.926;2022-08-20T19:33:06;7.15;;;2.70;;
37349;SDS011;23231;52.358;4.926;2022-08-20T19:38:07;9.20;;;2.30;;
37349;SDS011;23231;52.358;4.926;2022-08-20T19:43:15;8.05;;;2.33;;
37349;SDS011;23231;52.358;4.926;2022-08-20T19:48:34;9.70;;;2.60;;
37349;SDS011;23231;52.358;4.926;2022-08-20T19:53:42;9.05;;;3.30;;
37349;SDS011;23231;52.358;4.926;2022-08-20T19:58:45;8.43;;;3.00;;
37349;SDS011;23231;52.358;4.926;2022-08-20T20:03:59;8.75;;;3.15;;
37349;SDS011;23231;52.358;4.926;2022-08-20T20:09:15;7.68;;;3.15;;
37349;SDS011;23231;52.358;4.926;2022-08-20T20:14:16;7.65;;;3.40;;
37349;SDS011;23231;52.358;4.926;2022-08-20T20:19:18;8.80;;;2.75;;
37349;SDS011;23231;52.358;4.926;2022-08-20T20:24:21;9.90;;;3.05;;
37349;SDS011;23231;52.358;4.926;2022-08-20T20:29:32;8.20;;;2.83;;
37349;SDS011;23231;52.358;4.926;2022-08-20T20:34:36;8.23;;;3.10;;
37349;SDS011;23231;52.358;4.926;2022-08-20T20:39:41;6.40;;;2.55;;
37349;SDS011;23231;52.358;4.926;2022-08-20T20:44:44;6.28;;;2.17;;
37349;SDS011;23231;52.358;4.926;2022-08-20T20:49:49;10.00;;;3.13;;
37349;SDS011;23231;52.358;4.926;2022-08-20T21:00:09;8.13;;;2.92;;
37349;SDS011;23231;52.358;4.926;2022-08-20T21:05:16;8.82;;;3.60;;
37349;SDS011;23231;52.358;4.926;2022-08-20T21:10:20;9.15;;;3.53;;
37349;SDS011;23231;52.358;4.926;2022-08-20T21:15:22;11.18;;;4.68;;
37349;SDS011;23231;52.358;4.926;2022-08-20T21:20:24;9.60;;;3.55;;
37349;SDS011;23231;52.358;4.926;2022-08-20T21:25:26;8.52;;;3.08;;
37349;SDS011;23231;52.358;4.926;2022-08-20T21:30:28;7.60;;;3.60;;
37349;SDS011;23231;52.358;4.926;2022-08-20T21:35:29;7.63;;;3.83;;
37349;SDS011;23231;52.358;4.926;2022-08-20T21:40:30;8.77;;;3.80;;
37349;SDS011;23231;52.358;4.926;2022-08-20T21:45:30;9.18;;;3.50;;
37349;SDS011;23231;52.358;4.926;2022-08-20T21:50:31;8.32;;;3.00;;
37349;SDS011;23231;52.358;4.926;2022-08-20T21:55:31;12.75;;;5.25;;
37349;SDS011;23231;52.358;4.926;2022-08-20T22:00:45;6.97;;;3.45;;
37349;SDS011;23231;52.358;4.926;2022-08-20T22:05:52;8.43;;;3.40;;
37349;SDS011;23231;52.358;4.926;2022-08-20T22:10:52;12.20;;;3.80;;
37349;SDS011;23231;52.358;4.926;2022-08-20T22:15:53;11.48;;;3.88;;
37349;SDS011;23231;52.358;4.926;2022-08-20T22:20:53;7.40;;;3.55;;
37349;SDS011;23231;52.358;4.926;2022-08-20T22:25:54;8.35;;;4.15;;
37349;SDS011;23231;52.358;4.926;2022-08-20T22:30:54;8.90;;;3.72;;
37349;SDS011;23231;52.358;4.926;2022-08-20T22:35:55;9.75;;;3.90;;
37349;SDS011;23231;52.358;4.926;2022-08-20T22:40:56;17.02;;;5.25;;
37349;SDS011;23231;52.358;4.926;2022-08-20T22:45:57;12.75;;;4.90;;
37349;SDS011;23231;52.358;4.926;2022-08-20T22:50:58;11.43;;;4.32;;
37349;SDS011;23231;52.358;4.926;2022-08-20T22:55:59;10.18;;;3.80;;
37349;SDS011;23231;52.358;4.926;2022-08-20T23:01:00;7.60;;;3.42;;
37349;SDS011;23231;52.358;4.926;2022-08-20T23:06:02;10.13;;;4.03;;
37349;SDS011;23231;52.358;4.926;2022-08-20T23:11:03;10.05;;;3.60;;
37349;SDS011;23231;52.358;4.926;2022-08-20T23:16:03;9.18;;;3.78;;
37349;SDS011;23231;52.358;4.926;2022-08-20T23:21:04;10.15;;;3.70;;
37349;SDS011;23231;52.358;4.926;2022-08-20T23:26:05;11.18;;;4.22;;
37349;SDS011;23231;52.358;4.926;2022-08-20T23:31:05;8.77;;;4.45;;
37349;SDS011;23231;52.358;4.926;2022-08-20T23:36:06;8.98;;;4.00;;
37349;SDS011;23231;52.358;4.926;2022-08-20T23:41:08;8.43;;;3.97;;
37349;SDS011;23231;52.358;4.926;2022-08-20T23:46:09;9.70;;;4.10;;
37349;SDS011;23231;52.358;4.926;2022-08-20T23:51:10;9.77;;;3.80;;
37349;SDS011;23231;52.358;4.926;2022-08-20T23:56:10;8.38;;;4.15;;
